createdAt,value
2018-08-10T00:00:48.037Z,19.80
2018-08-10T00:03:16.176Z,19.70
2018-08-10T00:05:44.295Z,19.60
2018-08-10T00:08:12.488Z,19.50
2018-08-10T00:10:40.619Z,19.50
2018-08-10T00:13:08.752Z,19.40
2018-08-10T00:15:36.845Z,19.30
2018-08-10T00:18:04.991Z,19.30
2018-08-10T00:20:33.177Z,19.20
2018-08-10T00:23:01.346Z,19.10
2018-08-10T00:25:29.468Z,19.10
2018-08-10T00:27:57.581Z,19.00
2018-08-10T00:30:25.733Z,19.00
2018-08-10T00:32:53.841Z,19.00
2018-08-10T00:35:21.973Z,19.00
2018-08-10T00:37:50.053Z,18.90
2018-08-10T00:40:19.508Z,18.90
2018-08-10T00:42:47.673Z,18.90
2018-08-10T00:45:16.550Z,18.90
2018-08-10T00:47:45.064Z,18.80
2018-08-10T00:50:14.248Z,18.80
2018-08-10T00:52:43.085Z,18.70
2018-08-10T00:55:12.721Z,18.70
2018-08-10T00:57:41.273Z,18.60
2018-08-10T01:00:11.635Z,18.60
2018-08-10T01:02:39.732Z,18.50
2018-08-10T01:05:09.102Z,18.50
2018-08-10T01:07:37.701Z,18.40
2018-08-10T01:10:08.791Z,18.40
2018-08-10T01:12:37.131Z,18.30
2018-08-10T01:15:06.926Z,18.30
2018-08-10T01:17:35.103Z,18.20
2018-08-10T01:20:05.784Z,18.30
2018-08-10T01:22:36.820Z,18.20
2018-08-10T01:25:04.300Z,18.20
2018-08-10T01:27:37.406Z,18.00
2018-08-10T01:30:04.876Z,18.00
2018-08-10T01:32:32.312Z,17.90
2018-08-10T01:34:59.753Z,18.00
2018-08-10T01:37:27.207Z,17.90
2018-08-10T01:39:54.628Z,17.90
2018-08-10T01:42:22.105Z,17.90
2018-08-10T01:44:49.599Z,17.80
2018-08-10T01:47:17.725Z,17.80
2018-08-10T01:49:45.196Z,17.80
2018-08-10T01:52:12.714Z,17.70
2018-08-10T01:54:40.337Z,17.70
2018-08-10T01:57:07.756Z,17.70
2018-08-10T01:59:35.200Z,17.70
2018-08-10T02:02:02.704Z,17.60
2018-08-10T02:04:30.797Z,17.60
2018-08-10T02:06:58.885Z,17.50
2018-08-10T02:09:26.388Z,17.50
2018-08-10T02:11:54.440Z,17.50
2018-08-10T02:14:21.885Z,17.50
2018-08-10T02:16:49.309Z,17.40
2018-08-10T02:19:16.776Z,17.40
2018-08-10T02:21:44.911Z,17.40
2018-08-10T02:24:12.576Z,17.30
2018-08-10T02:26:40.049Z,17.30
2018-08-10T02:29:07.492Z,17.30
2018-08-10T02:31:34.908Z,17.30
2018-08-10T02:34:03.080Z,17.30
2018-08-10T02:36:30.527Z,17.30
2018-08-10T02:38:57.957Z,17.20
2018-08-10T02:41:25.417Z,17.20
2018-08-10T02:43:52.854Z,17.20
2018-08-10T02:46:21.133Z,17.20
2018-08-10T02:48:48.577Z,17.20
2018-08-10T02:51:16.689Z,17.20
2018-08-10T02:53:44.824Z,17.20
2018-08-10T02:56:12.949Z,17.20
2018-08-10T02:58:41.114Z,17.10
2018-08-10T03:01:09.570Z,17.10
2018-08-10T03:03:37.024Z,17.10
2018-08-10T03:06:05.277Z,17.10
2018-08-10T03:08:33.413Z,17.10
2018-08-10T03:11:01.574Z,17.00
2018-08-10T03:13:29.697Z,17.00
2018-08-10T03:15:57.842Z,17.00
2018-08-10T03:18:26.025Z,17.00
2018-08-10T03:20:54.134Z,17.00
2018-08-10T03:23:22.329Z,16.90
2018-08-10T03:25:50.464Z,16.90
2018-08-10T03:31:14.729Z,16.80
2018-08-10T03:33:42.856Z,16.80
2018-08-10T03:36:10.937Z,16.80
2018-08-10T03:38:39.164Z,16.70
2018-08-10T03:41:07.252Z,16.70
2018-08-10T03:43:35.349Z,16.70
2018-08-10T03:46:03.421Z,16.70
2018-08-10T03:48:31.528Z,16.60
2018-08-10T03:50:59.615Z,16.60
2018-08-10T03:53:27.718Z,16.60
2018-08-10T03:55:55.801Z,16.60
2018-08-10T03:58:23.907Z,16.60
2018-08-10T04:00:51.965Z,16.50
2018-08-10T04:03:20.054Z,16.50
2018-08-10T04:05:48.141Z,16.40
2018-08-10T04:08:16.219Z,16.40
2018-08-10T04:10:44.323Z,16.40
2018-08-10T04:13:12.410Z,16.40
2018-08-10T04:15:40.518Z,16.50
2018-08-10T04:18:08.672Z,16.50
2018-08-10T04:20:36.758Z,16.50
2018-08-10T04:23:05.102Z,16.50
2018-08-10T04:25:33.232Z,16.50
2018-08-10T04:28:01.312Z,16.50
2018-08-10T04:30:28.728Z,16.60
2018-08-10T04:32:56.805Z,16.50
2018-08-10T04:35:24.458Z,16.50
2018-08-10T04:37:51.895Z,16.50
2018-08-10T04:40:19.328Z,16.50
2018-08-10T04:42:46.756Z,16.50
2018-08-10T04:45:15.008Z,16.50
2018-08-10T04:47:47.854Z,16.50
2018-08-10T04:50:15.348Z,16.50
2018-08-10T04:52:42.775Z,16.50
2018-08-10T04:55:10.390Z,16.50
2018-08-10T04:57:37.816Z,16.50
2018-08-10T05:00:06.105Z,16.50
2018-08-10T05:02:33.572Z,16.50
2018-08-10T05:05:00.997Z,16.50
2018-08-10T05:07:28.409Z,16.50
2018-08-10T05:09:55.919Z,16.50
2018-08-10T05:12:23.236Z,16.50
2018-08-10T05:14:50.676Z,16.60
2018-08-10T05:17:18.084Z,16.70
2018-08-10T05:19:45.508Z,16.70
2018-08-10T05:22:13.083Z,16.80
2018-08-10T05:24:40.645Z,16.80
2018-08-10T05:27:08.060Z,16.90
2018-08-10T05:29:35.490Z,17.00
2018-08-10T05:32:02.900Z,17.00
2018-08-10T05:34:30.465Z,17.10
2018-08-10T05:36:57.877Z,17.00
2018-08-10T05:39:25.292Z,17.10
2018-08-10T05:41:52.704Z,17.20
2018-08-10T05:44:20.120Z,17.20
2018-08-10T05:46:47.575Z,17.10
2018-08-10T05:49:14.997Z,17.10
2018-08-10T05:51:42.412Z,17.10
2018-08-10T05:54:09.832Z,17.20
2018-08-10T05:56:37.264Z,17.30
2018-08-10T05:59:04.683Z,17.30
2018-08-10T06:01:32.106Z,17.30
2018-08-10T06:03:59.652Z,17.40
2018-08-10T06:06:27.092Z,17.50
2018-08-10T06:08:54.492Z,17.40
2018-08-10T06:11:21.928Z,17.40
2018-08-10T06:13:49.410Z,17.50
2018-08-10T06:16:16.838Z,17.50
2018-08-10T06:18:44.513Z,17.60
2018-08-10T06:21:11.938Z,17.60
2018-08-10T06:23:39.348Z,17.60
2018-08-10T06:26:06.785Z,17.60
2018-08-10T06:28:34.201Z,17.60
2018-08-10T06:31:01.616Z,17.70
2018-08-10T06:33:29.669Z,17.80
2018-08-10T06:35:57.101Z,17.90
2018-08-10T06:38:24.674Z,17.90
2018-08-10T06:40:52.089Z,18.00
2018-08-10T06:43:19.505Z,18.10
2018-08-10T06:45:46.941Z,18.10
2018-08-10T06:48:14.353Z,18.10
2018-08-10T06:50:41.926Z,18.00
2018-08-10T06:53:09.473Z,18.00
2018-08-10T06:55:36.872Z,18.00
2018-08-10T06:58:04.497Z,18.00
2018-08-10T07:00:32.144Z,18.00
2018-08-10T07:02:59.466Z,18.10
2018-08-10T07:05:26.894Z,18.10
2018-08-10T07:07:54.383Z,18.20
2018-08-10T07:10:21.789Z,18.10
2018-08-10T07:12:49.160Z,18.20
2018-08-10T07:15:16.576Z,18.20
2018-08-10T07:17:43.993Z,18.20
2018-08-10T07:20:11.426Z,18.20
2018-08-10T07:22:38.842Z,18.30
2018-08-10T07:25:06.508Z,18.30
2018-08-10T07:27:33.947Z,18.30
2018-08-10T07:30:01.385Z,18.30
2018-08-10T07:32:28.800Z,18.40
2018-08-10T07:34:56.230Z,18.40
2018-08-10T07:37:23.653Z,18.50
2018-08-10T07:39:51.073Z,18.50
2018-08-10T07:42:19.169Z,18.60
2018-08-10T07:44:47.251Z,18.70
2018-08-10T07:47:15.349Z,18.80
2018-08-10T07:49:43.433Z,18.80
2018-08-10T07:52:11.557Z,18.80
2018-08-10T07:54:39.606Z,18.80
2018-08-10T07:57:07.718Z,18.80
2018-08-10T07:59:35.806Z,18.80
2018-08-10T08:02:03.901Z,18.90
2018-08-10T08:04:31.990Z,18.90
2018-08-10T08:07:00.188Z,18.90
2018-08-10T08:09:28.161Z,18.90
2018-08-10T08:11:56.253Z,18.90
2018-08-10T08:14:24.331Z,18.90
2018-08-10T08:16:52.408Z,18.90
2018-08-10T08:19:20.544Z,19.00
2018-08-10T08:21:59.505Z,19.10
2018-08-10T08:24:27.603Z,19.20
2018-08-10T08:26:55.688Z,19.30
2018-08-10T08:29:23.769Z,19.30
2018-08-10T08:31:51.853Z,19.40
2018-08-10T08:34:19.938Z,19.50
2018-08-10T08:36:48.061Z,19.50
2018-08-10T08:39:28.512Z,19.50
2018-08-10T08:41:56.617Z,19.60
2018-08-10T08:46:43.613Z,19.70
2018-08-10T08:49:11.709Z,19.70
2018-08-10T08:51:39.802Z,19.90
2018-08-10T08:56:21.414Z,20.00
2018-08-10T08:58:50.185Z,20.10
2018-08-10T09:01:18.527Z,20.10
2018-08-10T09:05:03.077Z,20.20
2018-08-10T09:07:31.703Z,20.20
2018-08-10T09:10:00.689Z,20.20
2018-08-10T09:12:28.996Z,20.30
2018-08-10T09:15:00.374Z,20.30
2018-08-10T09:17:28.545Z,20.30
2018-08-10T09:19:56.577Z,20.30
2018-08-10T09:22:24.671Z,20.40
2018-08-10T09:24:52.753Z,20.50
2018-08-10T09:27:20.841Z,20.50
2018-08-10T09:29:48.926Z,20.40
2018-08-10T09:32:17.016Z,20.50
2018-08-10T09:34:45.097Z,20.60
2018-08-10T09:37:13.186Z,20.60
2018-08-10T09:39:41.260Z,20.70
2018-08-10T09:42:09.472Z,20.80
2018-08-10T09:44:37.529Z,20.90
2018-08-10T09:47:06.434Z,20.90
2018-08-10T09:49:38.094Z,20.90
2018-08-10T09:52:06.224Z,21.00
2018-08-10T09:54:48.073Z,21.10
2018-08-10T09:57:16.144Z,21.20
2018-08-10T09:59:44.246Z,21.10
2018-08-10T10:02:18.633Z,21.20
2018-08-10T10:04:46.770Z,21.30
2018-08-10T10:07:14.845Z,21.30
2018-08-10T10:09:42.939Z,21.30
2018-08-10T10:12:11.018Z,21.40
2018-08-10T10:15:07.434Z,21.40
2018-08-10T10:17:35.852Z,21.50
2018-08-10T10:20:04.458Z,21.50
2018-08-10T10:22:32.561Z,21.60
2018-08-10T10:25:00.649Z,21.70
2018-08-10T10:27:28.906Z,21.70
2018-08-10T10:29:57.394Z,21.80
2018-08-10T10:32:25.548Z,21.90
2018-08-10T10:34:53.711Z,22.00
2018-08-10T10:37:22.512Z,22.00
2018-08-10T10:39:50.802Z,21.90
2018-08-10T10:42:19.161Z,21.90
2018-08-10T10:44:47.249Z,21.90
2018-08-10T10:47:15.349Z,22.00
2018-08-10T10:49:43.445Z,22.10
2018-08-10T10:52:11.562Z,22.20
2018-08-10T10:54:39.678Z,22.30
2018-08-10T10:57:07.786Z,22.40
2018-08-10T10:59:35.876Z,22.40
2018-08-10T11:02:03.960Z,22.50
2018-08-10T11:04:32.058Z,22.60
2018-08-10T11:07:00.133Z,22.70
2018-08-10T11:09:28.222Z,22.80
2018-08-10T11:11:56.312Z,22.90
2018-08-10T11:14:24.441Z,22.90
2018-08-10T11:16:52.527Z,22.90
2018-08-10T11:19:20.600Z,23.00
2018-08-10T11:21:48.678Z,23.00
2018-08-10T11:24:16.770Z,23.00
2018-08-10T11:26:44.862Z,23.20
2018-08-10T11:29:12.973Z,23.40
2018-08-10T11:31:41.048Z,23.50
2018-08-10T11:34:09.147Z,23.70
2018-08-10T11:36:37.232Z,23.90
2018-08-10T11:39:07.821Z,23.90
2018-08-10T11:41:35.934Z,24.00
2018-08-10T11:44:04.197Z,24.00
2018-08-10T11:46:32.285Z,23.90
2018-08-10T11:49:00.375Z,23.90
2018-08-10T11:51:28.470Z,23.90
2018-08-10T11:53:56.565Z,24.00
2018-08-10T11:56:24.657Z,24.20
2018-08-10T11:58:52.733Z,24.30
2018-08-10T12:01:20.824Z,24.30
2018-08-10T12:03:48.925Z,24.20
2018-08-10T12:06:17.647Z,24.20
2018-08-10T12:08:45.639Z,24.20
2018-08-10T12:11:13.726Z,24.20
2018-08-10T12:13:42.086Z,24.10
2018-08-10T12:16:10.170Z,24.10
2018-08-10T12:18:38.746Z,24.10
2018-08-10T12:21:07.281Z,24.10
2018-08-10T12:23:36.106Z,24.20
2018-08-10T12:26:04.193Z,24.20
2018-08-10T12:28:32.280Z,24.20
2018-08-10T12:31:00.444Z,24.20
2018-08-10T12:33:28.569Z,24.30
2018-08-10T12:35:56.864Z,24.40
2018-08-10T12:38:24.922Z,24.50
2018-08-10T12:40:53.028Z,24.60
2018-08-10T12:43:21.178Z,24.60
2018-08-10T12:45:49.258Z,24.50
2018-08-10T12:48:17.321Z,24.50
2018-08-10T12:50:45.733Z,25.00
2018-08-10T12:53:13.781Z,25.80
2018-08-10T12:55:41.865Z,26.10
2018-08-10T12:58:09.938Z,26.00
2018-08-10T13:00:38.027Z,25.80
2018-08-10T13:03:06.642Z,25.70
2018-08-10T13:05:34.721Z,25.70
2018-08-10T13:08:02.808Z,25.50
2018-08-10T13:10:30.904Z,25.20
2018-08-10T13:12:58.976Z,25.10
2018-08-10T13:15:27.056Z,25.00
2018-08-10T13:17:55.124Z,26.20
2018-08-10T13:20:23.213Z,28.00
2018-08-10T13:22:51.497Z,28.60
2018-08-10T13:25:19.577Z,29.00
2018-08-10T13:27:47.663Z,30.00
2018-08-10T13:30:15.750Z,30.90
2018-08-10T13:32:43.836Z,31.50
2018-08-10T13:35:11.900Z,31.50
2018-08-10T13:37:40.003Z,31.70
2018-08-10T13:40:08.104Z,32.10
2018-08-10T13:42:36.205Z,32.50
2018-08-10T13:45:06.070Z,32.20
2018-08-10T13:47:34.158Z,32.10
2018-08-10T13:50:02.237Z,32.30
2018-08-10T13:52:30.338Z,32.90
2018-08-10T13:54:58.437Z,32.70
2018-08-10T13:57:26.516Z,32.10
2018-08-10T13:59:54.593Z,32.20
2018-08-10T14:02:22.705Z,32.50
2018-08-10T14:04:50.785Z,32.40
2018-08-10T14:07:18.871Z,32.20
2018-08-10T14:09:46.952Z,32.10
2018-08-10T14:12:15.038Z,31.50
2018-08-10T14:14:43.133Z,31.00
2018-08-10T14:17:11.225Z,30.20
2018-08-10T14:19:39.308Z,29.70
2018-08-10T14:22:07.428Z,29.30
2018-08-10T14:24:35.520Z,29.10
2018-08-10T14:27:03.628Z,28.90
2018-08-10T14:29:31.762Z,29.00
2018-08-10T14:31:59.880Z,29.60
2018-08-10T14:34:27.969Z,30.10
2018-08-10T14:36:56.050Z,30.20
2018-08-10T14:39:23.456Z,29.90
2018-08-10T14:41:51.568Z,29.40
2018-08-10T14:44:18.982Z,29.20
2018-08-10T14:46:47.093Z,29.30
2018-08-10T14:49:14.469Z,29.50
2018-08-10T14:51:42.583Z,29.80
2018-08-10T14:54:10.658Z,30.00
2018-08-10T14:56:38.743Z,30.10
2018-08-10T14:59:06.840Z,30.20
2018-08-10T15:01:34.944Z,30.40
2018-08-10T15:04:03.041Z,30.10
2018-08-10T15:06:31.166Z,29.60
2018-08-10T15:08:59.200Z,29.40
2018-08-10T15:11:27.280Z,29.30
2018-08-10T15:13:55.361Z,29.20
2018-08-10T15:16:22.788Z,29.20
2018-08-10T15:18:50.854Z,28.80
2018-08-10T15:21:18.932Z,28.40
2018-08-10T15:23:47.022Z,28.00
2018-08-10T15:26:15.154Z,27.70
2018-08-10T15:28:43.216Z,27.60
2018-08-10T15:31:11.296Z,27.50
2018-08-10T15:33:39.382Z,27.50
2018-08-10T15:36:07.490Z,27.30
2018-08-10T15:38:35.571Z,27.20
2018-08-10T15:41:03.641Z,27.20
2018-08-10T15:43:31.066Z,27.00
2018-08-10T15:45:58.472Z,27.00
2018-08-10T15:48:26.736Z,27.00
2018-08-10T15:50:54.832Z,27.20
2018-08-10T15:53:22.925Z,27.40
2018-08-10T15:55:51.008Z,27.70
2018-08-10T15:58:19.107Z,28.00
2018-08-10T16:00:47.229Z,28.00
2018-08-10T16:03:15.322Z,28.20
2018-08-10T16:05:43.409Z,28.40
2018-08-10T16:08:11.497Z,28.20
2018-08-10T16:10:39.572Z,28.00
2018-08-10T16:13:07.781Z,27.80
2018-08-10T16:15:35.832Z,27.40
2018-08-10T16:18:03.966Z,27.20
2018-08-10T16:20:32.053Z,27.00
2018-08-10T16:23:00.148Z,26.80
2018-08-10T16:25:28.238Z,26.70
2018-08-10T16:27:56.323Z,26.60
2018-08-10T16:30:24.421Z,26.50
2018-08-10T16:32:52.500Z,26.50
2018-08-10T16:35:20.564Z,26.60
2018-08-10T16:37:48.669Z,26.90
2018-08-10T16:40:17.694Z,27.00
2018-08-10T16:42:46.545Z,27.10
2018-08-10T16:45:15.077Z,27.00
2018-08-10T16:47:43.535Z,27.00
2018-08-10T16:50:14.585Z,27.20
2018-08-10T16:52:43.217Z,27.40
2018-08-10T16:55:17.597Z,27.60
2018-08-10T16:57:46.487Z,27.90
2018-08-10T17:00:17.422Z,28.10
2018-08-10T17:02:45.805Z,28.20
2018-08-10T17:05:14.022Z,28.30
2018-08-10T17:07:42.469Z,28.10
2018-08-10T17:10:11.017Z,27.80
2018-08-10T17:12:40.544Z,27.50
2018-08-10T17:15:11.382Z,27.30
2018-08-10T17:17:39.558Z,27.10
2018-08-10T17:20:08.083Z,27.00
2018-08-10T17:22:36.209Z,26.80
2018-08-10T17:25:05.668Z,26.80
2018-08-10T17:27:33.759Z,26.70
2018-08-10T17:30:01.852Z,26.70
2018-08-10T17:32:29.938Z,26.70
2018-08-10T17:34:58.021Z,26.60
2018-08-10T17:37:26.096Z,26.60
2018-08-10T17:39:54.215Z,26.60
2018-08-10T17:42:22.294Z,26.60
2018-08-10T17:44:50.401Z,26.60
2018-08-10T17:47:18.493Z,26.50
2018-08-10T17:49:46.598Z,26.30
2018-08-10T17:52:14.681Z,26.20
2018-08-10T17:54:42.781Z,26.00
2018-08-10T17:57:11.241Z,25.90
2018-08-10T17:59:39.325Z,25.80
2018-08-10T18:02:07.539Z,25.60
2018-08-10T18:04:35.648Z,25.50
2018-08-10T18:07:03.840Z,25.40
2018-08-10T18:09:31.956Z,25.20
2018-08-10T18:12:00.021Z,25.10
2018-08-10T18:14:28.105Z,25.00
2018-08-10T18:16:56.185Z,25.00
2018-08-10T18:19:24.325Z,24.90
2018-08-10T18:21:52.405Z,24.80
2018-08-10T18:24:20.493Z,24.70
2018-08-10T18:26:48.576Z,24.70
2018-08-10T18:29:17.189Z,24.70
2018-08-10T18:31:45.269Z,24.60
2018-08-10T18:34:13.425Z,24.50
2018-08-10T18:36:41.424Z,24.40
2018-08-10T18:39:11.665Z,24.30
2018-08-10T18:41:40.234Z,24.30
2018-08-10T18:44:08.586Z,24.20
2018-08-10T18:46:36.964Z,24.10
2018-08-10T18:49:05.377Z,24.00
2018-08-10T18:51:33.460Z,23.80
2018-08-10T18:54:01.550Z,23.80
2018-08-10T18:56:29.882Z,23.70
2018-08-10T18:58:57.962Z,23.70
2018-08-10T19:01:26.073Z,23.70
2018-08-10T19:03:54.205Z,23.70
2018-08-10T19:06:22.305Z,23.70
2018-08-10T19:08:50.394Z,23.70
2018-08-10T19:11:18.501Z,23.70
2018-08-10T19:13:46.600Z,23.60
2018-08-10T19:16:14.705Z,23.50
2018-08-10T19:18:42.983Z,23.50
2018-08-10T19:21:11.083Z,23.40
2018-08-10T19:23:39.155Z,23.40
2018-08-10T19:26:07.244Z,23.30
2018-08-10T19:28:35.329Z,23.30
2018-08-10T19:31:03.409Z,23.30
2018-08-10T19:33:31.494Z,23.20
2018-08-10T19:35:59.576Z,23.20
2018-08-10T19:38:27.720Z,23.10
2018-08-10T19:40:55.812Z,23.00
2018-08-10T19:43:23.903Z,23.00
2018-08-10T19:45:51.981Z,23.00
2018-08-10T19:48:20.067Z,22.90
2018-08-10T19:50:48.298Z,22.80
2018-08-10T19:53:16.394Z,22.70
2018-08-10T19:55:44.506Z,22.70
2018-08-10T19:58:12.600Z,22.60
2018-08-10T20:00:40.701Z,22.60
2018-08-10T20:03:09.061Z,22.60
2018-08-10T20:05:37.156Z,22.60
2018-08-10T20:08:05.249Z,22.60
2018-08-10T20:10:33.353Z,22.50
2018-08-10T20:13:01.432Z,22.50
2018-08-10T20:15:29.647Z,22.50
2018-08-10T20:17:57.602Z,22.50
2018-08-10T20:20:26.078Z,22.50
2018-08-10T20:22:54.196Z,22.40
2018-08-10T20:25:22.276Z,22.30
2018-08-10T20:27:50.378Z,22.30
2018-08-10T20:30:18.977Z,22.30
2018-08-10T20:32:47.885Z,22.20
2018-08-10T20:35:17.276Z,22.20
2018-08-10T20:37:45.364Z,22.10
2018-08-10T20:40:15.261Z,22.10
2018-08-10T20:42:43.396Z,22.00
2018-08-10T20:45:11.492Z,22.00
2018-08-10T20:47:39.785Z,22.00
2018-08-10T20:50:10.734Z,22.00
2018-08-10T20:52:38.874Z,22.00
2018-08-10T20:55:06.954Z,22.00
2018-08-10T20:57:35.080Z,22.00
2018-08-10T21:00:03.313Z,22.00
2018-08-10T21:02:31.558Z,22.00
2018-08-10T21:05:00.586Z,22.00
2018-08-10T21:07:28.725Z,22.00
2018-08-10T21:09:56.801Z,22.00
2018-08-10T21:12:24.909Z,22.00
2018-08-10T21:14:52.988Z,21.90
2018-08-10T21:17:21.077Z,21.90
2018-08-10T21:19:49.160Z,22.00
2018-08-10T21:22:17.257Z,21.90
2018-08-10T21:24:45.357Z,21.90
2018-08-10T21:27:13.461Z,21.90
2018-08-10T21:29:41.551Z,21.90
2018-08-10T21:32:09.651Z,21.90
2018-08-10T21:34:37.736Z,21.80
2018-08-10T21:37:05.825Z,21.90
2018-08-10T21:39:33.896Z,21.80
2018-08-10T21:42:01.988Z,21.80
2018-08-10T21:44:30.078Z,21.80
2018-08-10T21:46:58.173Z,21.70
2018-08-10T21:49:26.249Z,21.70
2018-08-10T21:51:54.325Z,21.70
2018-08-10T21:54:22.458Z,21.70
2018-08-10T21:56:50.536Z,21.70
2018-08-10T21:59:18.624Z,21.70
2018-08-10T22:01:46.714Z,21.70
2018-08-10T22:04:14.795Z,21.60
2018-08-10T22:06:42.877Z,21.60
2018-08-10T22:09:10.984Z,21.60
2018-08-10T22:11:39.045Z,21.60
2018-08-10T22:14:12.511Z,21.60
2018-08-10T22:16:46.110Z,21.60
2018-08-10T22:19:15.680Z,21.50
2018-08-10T22:21:45.001Z,21.50
2018-08-10T22:24:13.381Z,21.50
2018-08-10T22:26:41.650Z,21.50
2018-08-10T22:29:09.942Z,21.40
2018-08-10T22:31:38.019Z,21.40
2018-08-10T22:34:06.282Z,21.30
2018-08-10T22:36:34.440Z,21.30
2018-08-10T22:39:02.520Z,21.20
2018-08-10T22:41:30.597Z,21.20
2018-08-10T22:43:58.687Z,21.20
2018-08-10T22:46:26.763Z,21.20
2018-08-10T22:48:54.841Z,21.10
2018-08-10T22:51:22.912Z,21.10
2018-08-10T22:53:51.025Z,21.10
2018-08-10T22:56:19.094Z,21.10
2018-08-10T22:58:47.186Z,21.10
2018-08-10T23:01:15.260Z,21.00
2018-08-10T23:03:43.343Z,21.00
2018-08-10T23:06:11.421Z,21.00
2018-08-10T23:08:39.615Z,21.00
2018-08-10T23:11:07.654Z,21.00
2018-08-10T23:13:35.734Z,20.90
2018-08-10T23:16:03.813Z,20.90
2018-08-10T23:18:31.892Z,20.90
2018-08-10T23:20:59.991Z,20.80
2018-08-10T23:23:28.060Z,20.80
2018-08-10T23:25:56.141Z,20.70
2018-08-10T23:28:24.281Z,20.80
2018-08-10T23:30:52.374Z,20.70
2018-08-10T23:33:20.448Z,20.70
2018-08-10T23:35:48.521Z,20.70
2018-08-10T23:38:16.620Z,20.70
2018-08-10T23:40:44.733Z,20.70
2018-08-10T23:43:12.814Z,20.60
2018-08-10T23:45:40.878Z,20.60
2018-08-10T23:48:08.958Z,20.60
2018-08-10T23:50:37.034Z,20.60
2018-08-10T23:53:05.518Z,20.50
2018-08-10T23:55:33.596Z,20.50
2018-08-10T23:58:01.686Z,20.50
